createdAt,value
2023-05-21T00:01:49.937Z,18.70
2023-05-21T00:03:53.342Z,18.80
2023-05-21T00:05:56.302Z,18.70
2023-05-21T00:07:59.119Z,18.70
2023-05-21T00:10:03.211Z,18.60
2023-05-21T00:12:06.668Z,18.60
2023-05-21T00:14:09.476Z,18.50
2023-05-21T00:16:12.279Z,18.60
2023-05-21T00:18:15.069Z,18.50
2023-05-21T00:20:18.003Z,18.60
2023-05-21T00:22:21.113Z,18.50
2023-05-21T00:24:23.897Z,18.50
2023-05-21T00:26:28.038Z,18.60
2023-05-21T00:28:30.814Z,18.50
2023-05-21T00:30:33.628Z,18.50
2023-05-21T00:32:36.802Z,18.50
2023-05-21T00:34:39.691Z,18.60
2023-05-21T00:36:45.488Z,18.50
2023-05-21T00:38:48.401Z,18.50
2023-05-21T00:40:51.514Z,18.50
2023-05-21T00:42:57.265Z,18.50
2023-05-21T00:45:00.600Z,18.60
2023-05-21T00:47:03.722Z,18.60
2023-05-21T00:49:06.816Z,18.50
2023-05-21T00:51:10.037Z,18.50
2023-05-21T00:53:13.448Z,18.50
2023-05-21T00:55:16.271Z,18.50
2023-05-21T00:57:21.538Z,18.50
2023-05-21T00:59:26.093Z,18.50
2023-05-21T01:01:33.738Z,18.40
2023-05-21T01:03:39.183Z,18.40
2023-05-21T01:05:45.131Z,18.40
2023-05-21T01:07:48.332Z,18.30
2023-05-21T01:09:51.158Z,18.30
2023-05-21T01:11:54.832Z,18.40
2023-05-21T01:13:58.844Z,18.30
2023-05-21T01:16:03.793Z,18.20
2023-05-21T01:18:07.698Z,18.30
2023-05-21T01:20:11.862Z,18.30
2023-05-21T01:22:16.090Z,18.40
2023-05-21T01:24:20.325Z,18.30
2023-05-21T01:26:25.885Z,18.30
2023-05-21T01:28:29.700Z,18.30
2023-05-21T01:30:32.576Z,18.40
2023-05-21T01:32:43.303Z,18.40
2023-05-21T01:34:54.543Z,18.40
2023-05-21T01:37:05.492Z,18.40
2023-05-21T01:39:14.916Z,18.30
2023-05-21T01:41:21.068Z,18.30
2023-05-21T01:43:24.474Z,18.30
2023-05-21T01:45:28.960Z,18.30
2023-05-21T01:47:32.893Z,18.30
2023-05-21T01:49:35.991Z,18.40
2023-05-21T01:51:39.588Z,18.30
2023-05-21T01:53:42.652Z,18.40
2023-05-21T01:55:45.952Z,18.40
2023-05-21T01:57:50.081Z,18.40
2023-05-21T01:59:54.743Z,18.40
2023-05-21T02:01:57.619Z,18.30
2023-05-21T02:04:00.544Z,18.30
2023-05-21T02:06:03.702Z,18.40
2023-05-21T02:08:08.371Z,18.30
2023-05-21T02:10:11.961Z,18.30
2023-05-21T02:12:14.740Z,18.30
2023-05-21T02:14:18.804Z,18.30
2023-05-21T02:16:22.369Z,18.30
2023-05-21T02:18:26.361Z,18.30
2023-05-21T02:20:29.146Z,18.30
2023-05-21T02:22:31.915Z,18.30
2023-05-21T02:24:34.698Z,18.30
2023-05-21T02:26:37.502Z,18.30
2023-05-21T02:28:40.443Z,18.30
2023-05-21T02:30:44.557Z,18.20
2023-05-21T02:32:48.816Z,18.20
2023-05-21T02:34:51.836Z,18.20
2023-05-21T02:36:54.674Z,18.10
2023-05-21T02:38:57.768Z,18.10
2023-05-21T02:41:00.587Z,18.00
2023-05-21T02:43:03.335Z,18.10
2023-05-21T02:45:07.008Z,18.10
2023-05-21T02:47:12.598Z,18.10
2023-05-21T02:49:15.426Z,18.10
2023-05-21T02:51:18.193Z,18.00
2023-05-21T02:53:21.006Z,18.00
2023-05-21T02:55:23.915Z,17.90
2023-05-21T02:57:26.667Z,17.90
2023-05-21T02:59:29.462Z,18.00
2023-05-21T03:01:32.408Z,18.00
2023-05-21T03:03:36.646Z,17.80
2023-05-21T03:05:39.470Z,17.80
2023-05-21T03:07:43.588Z,17.90
2023-05-21T03:09:46.981Z,17.90
2023-05-21T03:11:50.055Z,17.80
2023-05-21T03:13:52.789Z,17.80
2023-05-21T03:15:56.547Z,17.80
2023-05-21T03:17:59.367Z,17.70
2023-05-21T03:20:05.812Z,17.70
2023-05-21T03:22:08.621Z,17.70
2023-05-21T03:24:13.707Z,17.80
2023-05-21T03:26:16.600Z,17.70
2023-05-21T03:28:19.445Z,17.70
2023-05-21T03:30:22.275Z,17.80
2023-05-21T03:32:25.215Z,17.90
2023-05-21T03:34:28.075Z,17.90
2023-05-21T03:36:32.150Z,17.90
2023-05-21T03:38:36.514Z,18.00
2023-05-21T03:40:39.947Z,18.00
2023-05-21T03:42:42.784Z,18.00
2023-05-21T03:44:45.956Z,18.00
2023-05-21T03:46:49.107Z,18.00
2023-05-21T03:48:51.918Z,18.00
2023-05-21T03:50:54.721Z,18.00
2023-05-21T03:52:58.850Z,18.10
2023-05-21T03:55:01.673Z,18.10
2023-05-21T03:57:04.619Z,18.10
2023-05-21T03:59:07.387Z,18.20
2023-05-21T04:01:10.720Z,18.30
2023-05-21T04:03:13.662Z,18.30
2023-05-21T04:05:16.540Z,18.30
2023-05-21T04:07:19.394Z,18.30
2023-05-21T04:09:23.534Z,18.30
2023-05-21T04:11:26.332Z,18.40
2023-05-21T04:13:29.258Z,18.40
2023-05-21T04:15:32.465Z,18.40
2023-05-21T04:17:35.565Z,18.50
2023-05-21T04:19:38.676Z,18.60
2023-05-21T04:21:41.940Z,18.70
2023-05-21T04:23:44.740Z,18.80
2023-05-21T04:25:50.790Z,18.80
2023-05-21T04:27:54.800Z,18.90
2023-05-21T04:29:58.020Z,18.90
2023-05-21T04:32:00.794Z,19.10
2023-05-21T04:34:03.633Z,19.20
2023-05-21T04:36:09.869Z,19.20
2023-05-21T04:38:12.635Z,19.40
2023-05-21T04:40:18.181Z,19.50
2023-05-21T04:42:23.966Z,19.50
2023-05-21T04:44:26.831Z,19.60
2023-05-21T04:46:30.998Z,19.50
2023-05-21T04:48:33.800Z,19.60
2023-05-21T04:50:36.690Z,19.70
2023-05-21T04:52:41.153Z,19.70
2023-05-21T04:54:45.799Z,19.80
2023-05-21T04:56:48.564Z,19.90
2023-05-21T04:58:54.100Z,19.90
2023-05-21T05:00:57.818Z,19.90
2023-05-21T05:03:01.120Z,19.90
2023-05-21T05:05:04.762Z,19.90
2023-05-21T05:07:07.552Z,19.90
2023-05-21T05:09:10.853Z,20.00
2023-05-21T05:11:13.709Z,20.00
2023-05-21T05:13:16.590Z,20.00
2023-05-21T05:15:20.828Z,20.10
2023-05-21T05:17:24.649Z,20.20
2023-05-21T05:19:27.634Z,20.30
2023-05-21T05:21:30.610Z,20.30
2023-05-21T05:23:33.503Z,20.30
2023-05-21T05:25:36.422Z,20.40
2023-05-21T05:27:39.409Z,20.40
2023-05-21T05:29:42.144Z,20.40
2023-05-21T05:31:46.337Z,20.50
2023-05-21T05:33:49.498Z,20.60
2023-05-21T05:35:52.278Z,20.60
2023-05-21T05:37:55.019Z,20.70
2023-05-21T05:39:57.792Z,20.70
2023-05-21T05:42:00.590Z,20.80
2023-05-21T05:44:03.406Z,20.80
2023-05-21T05:46:06.351Z,20.80
2023-05-21T05:48:10.579Z,20.90
2023-05-21T05:50:13.662Z,20.90
2023-05-21T05:52:16.483Z,21.00
2023-05-21T05:54:19.425Z,21.10
2023-05-21T05:56:22.237Z,21.00
2023-05-21T05:58:24.966Z,21.00
2023-05-21T06:00:27.731Z,20.80
2023-05-21T06:02:30.560Z,20.90
2023-05-21T06:04:34.805Z,20.90
2023-05-21T06:06:37.737Z,21.00
2023-05-21T06:08:40.496Z,21.10
2023-05-21T06:10:43.369Z,21.10
2023-05-21T06:12:46.145Z,21.20
2023-05-21T06:14:49.111Z,21.20
2023-05-21T06:16:51.878Z,21.40
2023-05-21T06:18:54.755Z,21.50
2023-05-21T06:20:58.901Z,21.70
2023-05-21T06:23:01.883Z,21.70
2023-05-21T06:25:05.024Z,21.90
2023-05-21T06:27:07.752Z,22.00
2023-05-21T06:29:10.544Z,22.10
2023-05-21T06:31:13.630Z,22.30
2023-05-21T06:33:16.609Z,22.30
2023-05-21T06:35:19.623Z,22.30
2023-05-21T06:37:25.922Z,22.30
2023-05-21T06:39:29.387Z,22.40
2023-05-21T06:41:32.169Z,22.40
2023-05-21T06:43:35.026Z,22.50
2023-05-21T06:45:37.956Z,22.50
2023-05-21T06:47:41.091Z,22.50
2023-05-21T06:49:43.884Z,22.60
2023-05-21T06:51:46.681Z,22.70
2023-05-21T06:53:50.979Z,22.80
2023-05-21T06:55:53.929Z,22.90
2023-05-21T06:57:58.570Z,23.00
2023-05-21T07:00:01.568Z,23.10
2023-05-21T07:02:04.777Z,23.20
2023-05-21T07:04:07.590Z,23.20
2023-05-21T07:06:10.404Z,23.30
2023-05-21T07:08:13.232Z,23.40
2023-05-21T07:10:17.486Z,23.60
2023-05-21T07:12:20.289Z,23.70
2023-05-21T07:14:23.023Z,23.90
2023-05-21T07:16:25.803Z,24.00
2023-05-21T07:18:28.746Z,24.20
2023-05-21T07:20:31.508Z,24.20
2023-05-21T07:22:34.316Z,24.40
2023-05-21T07:24:37.146Z,24.50
2023-05-21T07:26:41.382Z,24.70
2023-05-21T07:28:44.146Z,24.80
2023-05-21T07:30:47.138Z,24.80
2023-05-21T07:32:49.982Z,24.80
2023-05-21T07:34:54.291Z,24.80
2023-05-21T07:36:57.254Z,24.80
2023-05-21T07:39:00.014Z,24.80
2023-05-21T07:41:02.778Z,24.90
2023-05-21T07:43:06.827Z,24.80
2023-05-21T07:45:10.316Z,25.00
2023-05-21T07:47:13.064Z,25.10
2023-05-21T07:49:17.069Z,25.10
2023-05-21T07:51:20.050Z,25.40
2023-05-21T07:53:22.905Z,25.60
2023-05-21T07:55:25.664Z,25.80
2023-05-21T07:57:28.472Z,25.90
2023-05-21T07:59:33.638Z,25.90
2023-05-21T08:01:37.378Z,26.00
2023-05-21T08:03:40.446Z,26.10
2023-05-21T08:05:44.838Z,26.20
2023-05-21T08:07:47.693Z,26.10
2023-05-21T08:09:51.580Z,26.20
2023-05-21T08:11:54.412Z,26.20
2023-05-21T08:13:57.266Z,26.30
2023-05-21T08:16:01.626Z,26.50
2023-05-21T08:18:05.478Z,26.50
2023-05-21T08:20:09.342Z,26.50
2023-05-21T08:22:12.135Z,26.50
2023-05-21T08:24:14.916Z,26.50
2023-05-21T08:26:17.862Z,26.50
2023-05-21T08:28:23.167Z,26.50
2023-05-21T08:30:26.011Z,26.40
2023-05-21T08:32:30.190Z,26.50
2023-05-21T08:34:33.140Z,26.60
2023-05-21T08:36:36.058Z,26.70
2023-05-21T08:38:38.812Z,26.80
2023-05-21T08:40:42.153Z,26.80
2023-05-21T08:42:46.656Z,26.90
2023-05-21T08:44:53.705Z,26.90
2023-05-21T08:46:58.610Z,26.90
2023-05-21T08:49:04.625Z,26.90
2023-05-21T08:51:07.564Z,26.90
2023-05-21T08:53:19.910Z,26.90
2023-05-21T08:55:30.173Z,26.90
2023-05-21T08:57:33.478Z,27.10
2023-05-21T08:59:37.280Z,27.10
2023-05-21T09:01:42.279Z,27.10
2023-05-21T09:03:45.412Z,27.00
2023-05-21T09:05:51.175Z,27.10
2023-05-21T09:08:04.238Z,27.20
2023-05-21T09:10:10.049Z,27.30
2023-05-21T09:12:12.868Z,27.30
2023-05-21T09:14:16.190Z,27.50
2023-05-21T09:16:19.537Z,27.60
2023-05-21T09:18:22.376Z,27.80
2023-05-21T09:20:26.813Z,28.00
2023-05-21T09:22:31.335Z,28.10
2023-05-21T09:24:36.290Z,28.30
2023-05-21T09:26:41.950Z,28.50
2023-05-21T09:28:44.791Z,28.60
2023-05-21T09:30:47.976Z,28.70
2023-05-21T09:32:54.611Z,28.40
2023-05-21T09:34:57.448Z,28.40
2023-05-21T09:37:01.578Z,28.40
2023-05-21T09:39:06.476Z,28.40
2023-05-21T09:41:09.338Z,28.50
2023-05-21T09:43:15.105Z,28.50
2023-05-21T09:45:22.292Z,28.60
2023-05-21T09:47:25.088Z,28.80
2023-05-21T09:49:28.486Z,28.70
2023-05-21T09:51:32.075Z,28.80
2023-05-21T09:53:34.959Z,28.70
2023-05-21T09:55:39.161Z,28.60
2023-05-21T09:57:43.364Z,28.90
2023-05-21T09:59:46.279Z,29.10
2023-05-21T10:01:51.573Z,29.20
2023-05-21T10:03:57.720Z,29.30
2023-05-21T10:06:01.609Z,29.30
2023-05-21T10:08:05.970Z,29.40
2023-05-21T10:10:12.774Z,29.40
2023-05-21T10:12:19.905Z,29.20
2023-05-21T10:14:26.357Z,29.10
2023-05-21T10:16:30.711Z,29.10
2023-05-21T10:18:34.748Z,29.10
2023-05-21T10:20:38.823Z,29.20
2023-05-21T10:22:42.329Z,29.20
2023-05-21T10:24:45.984Z,29.10
2023-05-21T10:26:49.827Z,29.10
2023-05-21T10:28:55.971Z,29.20
2023-05-21T10:30:59.090Z,29.10
2023-05-21T10:33:03.736Z,29.30
2023-05-21T10:35:08.314Z,29.40
2023-05-21T10:37:13.542Z,29.50
2023-05-21T10:39:19.837Z,29.70
2023-05-21T10:41:24.048Z,29.70
2023-05-21T10:43:39.861Z,29.80
2023-05-21T10:46:05.156Z,29.90
2023-05-21T10:48:23.071Z,30.20
2023-05-21T10:50:47.620Z,30.30
2023-05-21T10:53:09.930Z,30.30
2023-05-21T10:55:24.305Z,30.40
2023-05-21T10:57:47.666Z,30.20
2023-05-21T10:59:51.348Z,30.30
2023-05-21T11:01:56.942Z,30.40
2023-05-21T11:03:59.839Z,30.40
2023-05-21T11:06:05.318Z,30.30
2023-05-21T11:08:21.880Z,30.20
2023-05-21T11:10:39.363Z,30.30
2023-05-21T11:13:06.861Z,30.30
2023-05-21T11:15:10.285Z,30.50
2023-05-21T11:17:17.176Z,30.60
2023-05-21T11:19:20.588Z,30.80
2023-05-21T11:21:26.197Z,30.90
2023-05-21T11:23:49.823Z,31.20
2023-05-21T11:26:04.525Z,31.40
2023-05-21T11:28:09.420Z,31.60
2023-05-21T11:30:17.172Z,31.50
2023-05-21T11:32:21.301Z,31.70
2023-05-21T11:34:28.636Z,31.90
2023-05-21T11:36:31.942Z,31.90
2023-05-21T11:38:35.335Z,32.20
2023-05-21T11:40:38.740Z,32.40
2023-05-21T11:42:42.479Z,32.60
2023-05-21T11:44:46.322Z,32.40
2023-05-21T11:46:49.845Z,32.40
2023-05-21T11:48:54.365Z,32.40
2023-05-21T11:50:57.485Z,32.40
2023-05-21T11:53:00.883Z,32.50
2023-05-21T11:55:03.672Z,32.50
2023-05-21T11:57:08.429Z,32.30
2023-05-21T11:59:19.070Z,32.30
2023-05-21T12:01:25.138Z,32.40
2023-05-21T12:03:30.452Z,32.40
2023-05-21T12:05:46.157Z,32.60
2023-05-21T12:07:50.455Z,32.70
2023-05-21T12:09:53.698Z,32.70
2023-05-21T12:11:56.522Z,32.60
2023-05-21T12:13:59.408Z,32.60
2023-05-21T12:16:05.965Z,32.40
2023-05-21T12:18:09.850Z,32.30
2023-05-21T12:20:16.552Z,32.40
2023-05-21T12:22:21.412Z,32.30
2023-05-21T12:24:24.395Z,32.40
2023-05-21T12:26:27.622Z,32.50
2023-05-21T12:28:30.725Z,32.60
2023-05-21T12:30:33.723Z,32.60
2023-05-21T12:32:38.189Z,32.60
2023-05-21T12:34:46.134Z,32.80
2023-05-21T12:36:51.009Z,32.90
2023-05-21T12:38:56.248Z,32.90
2023-05-21T12:41:04.932Z,33.10
2023-05-21T12:43:07.892Z,33.40
2023-05-21T12:45:12.015Z,33.50
2023-05-21T12:47:15.296Z,33.70
2023-05-21T12:49:32.165Z,33.70
2023-05-21T12:51:41.056Z,33.80
2023-05-21T12:53:44.788Z,33.80
2023-05-21T12:55:49.060Z,33.90
2023-05-21T12:57:52.165Z,34.20
2023-05-21T12:59:57.361Z,33.90
2023-05-21T13:02:01.702Z,34.10
2023-05-21T13:04:07.747Z,34.10
2023-05-21T13:06:10.768Z,34.30
2023-05-21T13:08:15.517Z,34.30
2023-05-21T13:10:18.794Z,34.20
2023-05-21T13:12:24.734Z,34.20
2023-05-21T13:14:27.505Z,34.10
2023-05-21T13:16:30.279Z,33.90
2023-05-21T13:18:33.138Z,33.80
2023-05-21T13:20:36.380Z,33.70
2023-05-21T13:22:42.414Z,33.40
2023-05-21T13:24:45.384Z,33.40
2023-05-21T13:26:48.204Z,33.50
2023-05-21T13:28:52.309Z,33.60
2023-05-21T13:30:56.038Z,33.70
2023-05-21T13:32:58.904Z,33.50
2023-05-21T13:35:01.742Z,33.70
2023-05-21T13:37:04.492Z,33.70
2023-05-21T13:39:07.621Z,33.60
2023-05-21T13:41:10.374Z,33.70
2023-05-21T13:43:13.239Z,33.80
2023-05-21T13:45:19.366Z,33.60
2023-05-21T13:47:22.280Z,33.60
2023-05-21T13:49:25.174Z,33.20
2023-05-21T13:51:38.738Z,33.10
2023-05-21T13:53:42.343Z,33.00
2023-05-21T13:55:45.096Z,33.50
2023-05-21T13:57:47.923Z,33.60
2023-05-21T13:59:50.985Z,33.80
2023-05-21T14:01:55.364Z,33.80
2023-05-21T14:03:58.295Z,33.90
2023-05-21T14:06:01.121Z,34.10
2023-05-21T14:08:04.194Z,34.20
2023-05-21T14:10:07.984Z,34.30
2023-05-21T14:12:10.963Z,34.30
2023-05-21T14:14:18.767Z,34.30
2023-05-21T14:16:23.056Z,34.20
2023-05-21T14:18:27.214Z,34.20
2023-05-21T14:20:30.097Z,34.00
2023-05-21T14:22:32.808Z,33.60
2023-05-21T14:24:35.654Z,33.50
2023-05-21T14:26:41.022Z,33.70
2023-05-21T14:28:44.641Z,34.10
2023-05-21T14:30:47.400Z,35.30
2023-05-21T14:32:50.240Z,36.90
2023-05-21T14:34:54.406Z,36.70
2023-05-21T14:36:57.138Z,36.90
2023-05-21T14:39:00.170Z,38.20
2023-05-21T14:41:02.986Z,39.10
2023-05-21T14:43:06.439Z,39.30
2023-05-21T14:45:18.824Z,40.10
2023-05-21T14:47:22.367Z,41.00
2023-05-21T14:49:25.237Z,41.60
2023-05-21T14:51:29.304Z,42.80
2023-05-21T14:53:32.297Z,44.20
2023-05-21T14:55:37.070Z,45.40
2023-05-21T14:57:40.328Z,46.20
2023-05-21T14:59:43.131Z,44.60
2023-05-21T15:01:46.086Z,44.60
2023-05-21T15:03:49.042Z,44.60
2023-05-21T15:05:51.970Z,44.00
2023-05-21T15:07:56.212Z,44.70
2023-05-21T15:09:58.901Z,45.00
2023-05-21T15:12:01.633Z,44.50
2023-05-21T15:14:04.405Z,43.00
2023-05-21T15:16:07.493Z,41.30
2023-05-21T15:18:11.214Z,42.50
2023-05-21T15:20:14.332Z,41.60
2023-05-21T15:22:17.199Z,42.10
2023-05-21T15:24:21.303Z,43.40
2023-05-21T15:26:25.697Z,44.80
2023-05-21T15:28:28.536Z,45.80
2023-05-21T15:30:31.363Z,46.60
2023-05-21T15:32:34.132Z,46.20
2023-05-21T15:34:36.964Z,45.30
2023-05-21T15:36:39.785Z,44.10
2023-05-21T15:38:42.552Z,42.00
2023-05-21T15:40:46.652Z,40.20
2023-05-21T15:42:49.391Z,39.60
2023-05-21T15:44:52.118Z,40.30
2023-05-21T15:49:12.385Z,40.40
2023-05-21T15:51:15.152Z,39.50
2023-05-21T15:53:17.982Z,39.30
2023-05-21T15:55:21.139Z,38.80
2023-05-21T15:57:25.239Z,39.10
2023-05-21T15:59:28.882Z,39.30
2023-05-21T16:01:31.763Z,39.60
2023-05-21T16:03:34.626Z,40.00
2023-05-21T16:05:37.665Z,41.20
2023-05-21T16:07:40.662Z,42.70
2023-05-21T16:09:43.409Z,43.40
2023-05-21T16:11:46.211Z,43.10
2023-05-21T16:13:50.310Z,42.50
2023-05-21T16:15:53.083Z,41.40
2023-05-21T16:17:55.856Z,40.80
2023-05-21T16:19:58.661Z,41.30
2023-05-21T16:22:01.955Z,42.20
2023-05-21T16:24:05.130Z,42.90
2023-05-21T16:26:08.270Z,42.80
2023-05-21T16:28:12.210Z,41.70
2023-05-21T16:30:16.466Z,41.60
2023-05-21T16:32:19.401Z,42.70
2023-05-21T16:34:22.182Z,43.30
2023-05-21T16:36:24.940Z,44.20
2023-05-21T16:38:27.688Z,45.30
2023-05-21T16:40:31.431Z,45.30
2023-05-21T16:42:34.234Z,45.60
2023-05-21T16:44:37.875Z,46.10
2023-05-21T16:46:42.043Z,46.20
2023-05-21T16:48:44.852Z,45.90
2023-05-21T16:50:47.788Z,45.10
2023-05-21T16:52:50.523Z,44.80
2023-05-21T16:54:53.347Z,44.60
2023-05-21T16:56:56.175Z,43.90
2023-05-21T16:58:58.923Z,43.30
2023-05-21T17:01:01.853Z,42.70
2023-05-21T17:03:06.148Z,41.80
2023-05-21T17:05:09.449Z,41.50
2023-05-21T17:07:12.199Z,41.20
2023-05-21T17:09:18.732Z,40.60
2023-05-21T17:11:21.771Z,39.80
2023-05-21T17:13:24.537Z,38.90
2023-05-21T17:15:27.543Z,38.00
2023-05-21T17:17:30.407Z,37.20
2023-05-21T17:19:35.052Z,36.60
2023-05-21T17:21:37.915Z,36.30
2023-05-21T17:23:42.839Z,36.10
2023-05-21T17:25:45.652Z,36.10
2023-05-21T17:27:48.437Z,35.90
2023-05-21T17:29:51.186Z,35.70
2023-05-21T17:31:54.024Z,35.70
2023-05-21T17:33:57.125Z,35.60
2023-05-21T17:36:02.019Z,35.60
2023-05-21T17:38:04.940Z,36.00
2023-05-21T17:40:09.223Z,36.60
2023-05-21T17:42:12.240Z,36.60
2023-05-21T17:44:16.741Z,36.90
2023-05-21T17:46:19.528Z,37.20
2023-05-21T17:48:22.364Z,37.50
2023-05-21T17:50:25.161Z,37.30
2023-05-21T17:52:29.234Z,37.50
2023-05-21T17:54:32.194Z,37.00
2023-05-21T17:56:38.939Z,36.40
2023-05-21T17:58:41.664Z,35.50
2023-05-21T18:00:44.536Z,34.90
2023-05-21T18:02:47.359Z,34.10
2023-05-21T18:04:50.161Z,33.60
2023-05-21T18:06:52.934Z,33.00
2023-05-21T18:08:57.069Z,32.60
2023-05-21T18:11:01.582Z,32.10
2023-05-21T18:13:04.480Z,31.70
2023-05-21T18:15:08.411Z,31.40
2023-05-21T18:17:11.232Z,31.10
2023-05-21T18:19:14.142Z,30.80
2023-05-21T18:21:17.045Z,30.50
2023-05-21T18:23:19.804Z,30.40
2023-05-21T18:25:23.933Z,30.20
2023-05-21T18:27:26.865Z,30.10
2023-05-21T18:29:29.646Z,29.90
2023-05-21T18:31:32.507Z,29.70
2023-05-21T18:33:35.626Z,29.50
2023-05-21T18:35:38.453Z,29.30
2023-05-21T18:37:42.889Z,29.20
2023-05-21T18:39:45.741Z,29.10
2023-05-21T18:41:51.687Z,28.80
2023-05-21T18:43:56.418Z,28.70
2023-05-21T18:45:59.277Z,28.50
2023-05-21T18:48:03.133Z,28.40
2023-05-21T18:50:07.274Z,28.30
2023-05-21T18:52:10.065Z,28.10
2023-05-21T18:54:12.790Z,28.00
2023-05-21T18:56:15.627Z,28.00
2023-05-21T18:58:19.860Z,27.90
2023-05-21T19:00:22.835Z,27.70
2023-05-21T19:02:26.396Z,27.60
2023-05-21T19:04:29.141Z,27.40
2023-05-21T19:06:31.991Z,27.40
2023-05-21T19:08:34.829Z,27.30
2023-05-21T19:10:39.286Z,27.10
2023-05-21T19:12:43.421Z,27.00
2023-05-21T19:14:47.558Z,26.90
2023-05-21T19:16:50.769Z,26.90
2023-05-21T19:18:53.582Z,26.80
2023-05-21T19:20:56.606Z,26.70
2023-05-21T19:23:01.631Z,26.60
2023-05-21T19:25:04.497Z,26.50
2023-05-21T19:27:07.514Z,26.50
2023-05-21T19:29:10.946Z,26.40
2023-05-21T19:31:15.093Z,26.40
2023-05-21T19:33:18.113Z,26.30
2023-05-21T19:35:24.927Z,26.20
2023-05-21T19:37:30.036Z,26.20
2023-05-21T19:39:41.758Z,26.20
2023-05-21T19:41:45.079Z,26.20
2023-05-21T19:43:47.925Z,26.10
2023-05-21T19:45:50.761Z,26.00
2023-05-21T19:47:55.004Z,25.90
2023-05-21T19:49:57.796Z,25.80
2023-05-21T19:52:01.988Z,25.70
2023-05-21T19:54:04.821Z,25.60
2023-05-21T19:56:08.042Z,25.70
2023-05-21T19:58:13.351Z,25.70
2023-05-21T20:00:17.229Z,25.60
2023-05-21T20:02:19.960Z,25.50
2023-05-21T20:04:24.087Z,25.40
2023-05-21T20:06:26.915Z,25.40
2023-05-21T20:08:29.702Z,25.40
2023-05-21T20:10:32.404Z,25.40
2023-05-21T20:12:35.629Z,25.40
2023-05-21T20:14:38.439Z,25.40
2023-05-21T20:16:42.293Z,25.30
2023-05-21T20:18:46.920Z,25.20
2023-05-21T20:20:51.009Z,25.10
2023-05-21T20:22:56.095Z,25.10
2023-05-21T20:24:58.864Z,25.10
2023-05-21T20:27:02.378Z,25.20
2023-05-21T20:29:06.412Z,25.20
2023-05-21T20:31:09.341Z,25.10
2023-05-21T20:33:13.564Z,25.00
2023-05-21T20:35:16.390Z,25.00
2023-05-21T20:37:21.620Z,24.90
2023-05-21T20:39:24.617Z,24.90
2023-05-21T20:41:28.255Z,24.90
2023-05-21T20:43:31.223Z,24.90
2023-05-21T20:45:35.626Z,24.80
2023-05-21T20:47:38.493Z,24.80
2023-05-21T20:49:41.276Z,24.80
2023-05-21T20:51:44.109Z,24.80
2023-05-21T20:53:48.555Z,24.80
2023-05-21T20:55:52.676Z,24.80
2023-05-21T20:57:56.074Z,24.70
2023-05-21T20:59:58.867Z,24.60
2023-05-21T21:02:01.878Z,24.70
2023-05-21T21:04:05.188Z,24.80
2023-05-21T21:06:09.757Z,24.70
2023-05-21T21:08:12.528Z,24.80
2023-05-21T21:10:16.759Z,24.80
2023-05-21T21:12:25.356Z,24.90
2023-05-21T21:14:30.776Z,24.90
2023-05-21T21:16:34.786Z,24.90
2023-05-21T21:18:37.591Z,24.90
2023-05-21T21:20:41.218Z,24.90
2023-05-21T21:22:44.430Z,24.90
2023-05-21T21:24:48.161Z,24.90
2023-05-21T21:26:52.238Z,24.90
2023-05-21T21:28:56.283Z,25.00
2023-05-21T21:30:59.270Z,24.90
2023-05-21T21:33:02.169Z,24.90
2023-05-21T21:35:05.946Z,24.90
2023-05-21T21:37:08.723Z,24.90
2023-05-21T21:39:11.516Z,25.00
2023-05-21T21:41:14.260Z,24.90
2023-05-21T21:43:18.555Z,25.00
2023-05-21T21:45:21.349Z,25.00
2023-05-21T21:47:24.171Z,24.90
2023-05-21T21:49:26.949Z,24.90
2023-05-21T21:51:29.786Z,24.80
2023-05-21T21:53:32.555Z,24.80
2023-05-21T21:55:35.331Z,24.80
2023-05-21T21:57:39.401Z,24.70
2023-05-21T21:59:43.513Z,24.70
2023-05-21T22:01:46.464Z,24.70
2023-05-21T22:03:49.303Z,24.70
2023-05-21T22:05:52.333Z,24.70
2023-05-21T22:07:55.123Z,24.70
2023-05-21T22:09:57.849Z,24.70
2023-05-21T22:12:00.634Z,24.60
2023-05-21T22:14:04.387Z,24.60
2023-05-21T22:16:08.906Z,24.60
2023-05-21T22:18:12.066Z,24.50
2023-05-21T22:20:15.124Z,24.50
2023-05-21T22:22:18.005Z,24.50
2023-05-21T22:24:31.377Z,24.40
2023-05-21T22:26:35.486Z,24.40
2023-05-21T22:28:38.319Z,24.30
2023-05-21T22:30:41.351Z,24.30
2023-05-21T22:32:45.634Z,24.30
2023-05-21T22:34:48.429Z,24.30
2023-05-21T22:36:51.296Z,24.30
2023-05-21T22:38:54.246Z,24.30
2023-05-21T22:40:57.075Z,24.20
2023-05-21T22:43:00.152Z,24.20
2023-05-21T22:45:03.137Z,24.20
2023-05-21T22:47:06.466Z,24.20
2023-05-21T22:49:10.685Z,24.10
2023-05-21T22:51:14.111Z,24.10
2023-05-21T22:53:17.607Z,24.10
2023-05-21T22:55:20.618Z,24.10
2023-05-21T22:57:23.397Z,24.10
2023-05-21T22:59:26.440Z,24.00
2023-05-21T23:01:29.334Z,24.00
2023-05-21T23:03:32.192Z,23.90
2023-05-21T23:05:36.285Z,23.70
2023-05-21T23:07:39.036Z,23.70
2023-05-21T23:09:41.864Z,23.70
2023-05-21T23:11:45.481Z,23.70
2023-05-21T23:13:48.341Z,23.60
2023-05-21T23:15:51.440Z,23.60
2023-05-21T23:17:54.246Z,23.60
2023-05-21T23:19:57.617Z,23.40
2023-05-21T23:22:01.740Z,23.50
2023-05-21T23:24:04.740Z,23.40
2023-05-21T23:26:07.544Z,23.40
2023-05-21T23:28:10.331Z,23.30
2023-05-21T23:30:13.383Z,23.30
2023-05-21T23:32:16.247Z,23.30
2023-05-21T23:34:19.057Z,23.10
2023-05-21T23:36:22.067Z,23.10
2023-05-21T23:38:26.344Z,23.10
2023-05-21T23:40:29.092Z,23.10
2023-05-21T23:42:31.963Z,23.10
2023-05-21T23:44:34.782Z,23.00
2023-05-21T23:46:37.579Z,22.90
2023-05-21T23:48:40.535Z,22.90
2023-05-21T23:50:43.397Z,22.80
2023-05-21T23:52:46.537Z,22.80
2023-05-21T23:54:50.890Z,22.60
2023-05-21T23:56:53.712Z,22.50
2023-05-21T23:58:56.475Z,22.30
